sensor_id;sensor_type;location;lat;lon;timestamp;P1;durP1;ratioP1;P2;durP2;ratioP2
42140;SDS011;27809;51.864;5.646;2022-12-11T00:02:18;61.05;;;15.70;;
42140;SDS011;27809;51.864;5.646;2022-12-11T00:04:44;66.88;;;19.27;;
42140;SDS011;27809;51.864;5.646;2022-12-11T00:07:10;60.88;;;19.77;;
42140;SDS011;27809;51.864;5.646;2022-12-11T00:09:35;76.20;;;22.70;;
42140;SDS011;27809;51.864;5.646;2022-12-11T00:12:01;52.00;;;16.40;;
42140;SDS011;27809;51.864;5.646;2022-12-11T00:14:27;87.85;;;23.17;;
42140;SDS011;27809;51.864;5.646;2022-12-11T00:16:53;54.10;;;16.63;;
42140;SDS011;27809;51.864;5.646;2022-12-11T00:19:19;82.13;;;21.38;;
42140;SDS011;27809;51.864;5.646;2022-12-11T00:21:44;63.55;;;19.17;;
42140;SDS011;27809;51.864;5.646;2022-12-11T00:24:10;62.45;;;18.75;;
42140;SDS011;27809;51.864;5.646;2022-12-11T00:26:35;62.85;;;22.20;;
42140;SDS011;27809;51.864;5.646;2022-12-11T00:29:01;59.53;;;19.40;;
42140;SDS011;27809;51.864;5.646;2022-12-11T00:31:27;57.42;;;18.23;;
42140;SDS011;27809;51.864;5.646;2022-12-11T00:33:53;72.13;;;20.85;;
42140;SDS011;27809;51.864;5.646;2022-12-11T00:36:23;66.55;;;20.42;;
42140;SDS011;27809;51.864;5.646;2022-12-11T00:38:50;67.75;;;22.33;;
42140;SDS011;27809;51.864;5.646;2022-12-11T00:41:16;68.05;;;18.38;;
42140;SDS011;27809;51.864;5.646;2022-12-11T00:43:43;56.40;;;17.48;;
42140;SDS011;27809;51.864;5.646;2022-12-11T00:46:09;63.95;;;21.08;;
42140;SDS011;27809;51.864;5.646;2022-12-11T00:48:35;74.93;;;21.27;;
42140;SDS011;27809;51.864;5.646;2022-12-11T00:51:00;77.53;;;20.58;;
42140;SDS011;27809;51.864;5.646;2022-12-11T00:53:26;64.57;;;20.90;;
42140;SDS011;27809;51.864;5.646;2022-12-11T00:55:52;61.55;;;21.92;;
42140;SDS011;27809;51.864;5.646;2022-12-11T00:58:17;54.67;;;19.67;;
42140;SDS011;27809;51.864;5.646;2022-12-11T01:00:43;76.68;;;22.02;;
42140;SDS011;27809;51.864;5.646;2022-12-11T01:03:09;62.85;;;18.73;;
42140;SDS011;27809;51.864;5.646;2022-12-11T01:05:36;78.15;;;22.42;;
42140;SDS011;27809;51.864;5.646;2022-12-11T01:08:02;75.93;;;20.70;;
42140;SDS011;27809;51.864;5.646;2022-12-11T01:10:28;73.35;;;21.90;;
42140;SDS011;27809;51.864;5.646;2022-12-11T01:12:58;70.70;;;20.17;;
42140;SDS011;27809;51.864;5.646;2022-12-11T01:15:25;80.43;;;20.42;;
42140;SDS011;27809;51.864;5.646;2022-12-11T01:17:53;82.60;;;21.25;;
42140;SDS011;27809;51.864;5.646;2022-12-11T01:20:19;78.03;;;19.73;;
42140;SDS011;27809;51.864;5.646;2022-12-11T01:22:46;61.90;;;19.02;;
42140;SDS011;27809;51.864;5.646;2022-12-11T01:25:11;105.60;;;23.30;;
42140;SDS011;27809;51.864;5.646;2022-12-11T01:27:37;84.20;;;21.25;;
42140;SDS011;27809;51.864;5.646;2022-12-11T01:30:04;91.00;;;21.13;;
42140;SDS011;27809;51.864;5.646;2022-12-11T01:32:31;73.85;;;21.48;;
42140;SDS011;27809;51.864;5.646;2022-12-11T01:34:58;91.15;;;22.08;;
42140;SDS011;27809;51.864;5.646;2022-12-11T01:37:23;75.13;;;18.95;;
42140;SDS011;27809;51.864;5.646;2022-12-11T01:39:49;72.35;;;22.13;;
42140;SDS011;27809;51.864;5.646;2022-12-11T01:42:16;80.32;;;23.00;;
42140;SDS011;27809;51.864;5.646;2022-12-11T01:47:08;132.35;;;25.13;;
42140;SDS011;27809;51.864;5.646;2022-12-11T01:49:33;95.75;;;25.45;;
42140;SDS011;27809;51.864;5.646;2022-12-11T01:52:10;91.00;;;24.88;;
42140;SDS011;27809;51.864;5.646;2022-12-11T01:54:40;88.57;;;21.58;;
42140;SDS011;27809;51.864;5.646;2022-12-11T01:57:07;125.55;;;22.88;;
42140;SDS011;27809;51.864;5.646;2022-12-11T01:59:35;92.65;;;25.25;;
42140;SDS011;27809;51.864;5.646;2022-12-11T02:02:20;81.68;;;22.63;;
42140;SDS011;27809;51.864;5.646;2022-12-11T02:04:50;83.75;;;22.17;;
42140;SDS011;27809;51.864;5.646;2022-12-11T02:07:15;113.35;;;23.55;;
42140;SDS011;27809;51.864;5.646;2022-12-11T02:09:41;95.03;;;22.85;;
42140;SDS011;27809;51.864;5.646;2022-12-11T02:14:58;79.18;;;23.25;;
42140;SDS011;27809;51.864;5.646;2022-12-11T02:17:58;75.35;;;22.67;;
42140;SDS011;27809;51.864;5.646;2022-12-11T02:23:41;90.55;;;24.52;;
42140;SDS011;27809;51.864;5.646;2022-12-11T02:26:31;93.22;;;26.77;;
42140;SDS011;27809;51.864;5.646;2022-12-11T02:29:18;75.15;;;24.38;;
42140;SDS011;27809;51.864;5.646;2022-12-11T02:31:56;85.32;;;24.80;;
42140;SDS011;27809;51.864;5.646;2022-12-11T02:34:33;82.90;;;25.08;;
42140;SDS011;27809;51.864;5.646;2022-12-11T02:37:06;77.72;;;25.15;;
42140;SDS011;27809;51.864;5.646;2022-12-11T02:39:37;71.50;;;21.95;;
42140;SDS011;27809;51.864;5.646;2022-12-11T02:42:06;84.60;;;24.63;;
42140;SDS011;27809;51.864;5.646;2022-12-11T02:44:33;75.45;;;24.02;;
42140;SDS011;27809;51.864;5.646;2022-12-11T02:47:00;76.43;;;21.20;;
42140;SDS011;27809;51.864;5.646;2022-12-11T02:49:27;88.57;;;23.55;;
42140;SDS011;27809;51.864;5.646;2022-12-11T02:51:55;84.10;;;23.00;;
42140;SDS011;27809;51.864;5.646;2022-12-11T02:54:24;77.63;;;23.30;;
42140;SDS011;27809;51.864;5.646;2022-12-11T02:57:05;71.07;;;21.63;;
42140;SDS011;27809;51.864;5.646;2022-12-11T02:59:36;90.30;;;24.75;;
42140;SDS011;27809;51.864;5.646;2022-12-11T03:02:04;81.40;;;22.60;;
42140;SDS011;27809;51.864;5.646;2022-12-11T03:04:30;96.93;;;24.23;;
42140;SDS011;27809;51.864;5.646;2022-12-11T03:07:02;73.60;;;23.83;;
42140;SDS011;27809;51.864;5.646;2022-12-11T03:09:36;91.68;;;22.77;;
42140;SDS011;27809;51.864;5.646;2022-12-11T03:12:06;82.82;;;22.40;;
42140;SDS011;27809;51.864;5.646;2022-12-11T03:14:35;67.10;;;23.45;;
42140;SDS011;27809;51.864;5.646;2022-12-11T03:22:33;96.95;;;21.17;;
42140;SDS011;27809;51.864;5.646;2022-12-11T03:25:06;71.53;;;21.52;;
42140;SDS011;27809;51.864;5.646;2022-12-11T03:28:20;66.85;;;23.33;;
42140;SDS011;27809;51.864;5.646;2022-12-11T03:30:34;93.10;;;25.08;;
42140;SDS011;27809;51.864;5.646;2022-12-11T03:33:05;63.78;;;18.67;;
42140;SDS011;27809;51.864;5.646;2022-12-11T03:35:36;68.22;;;23.15;;
42140;SDS011;27809;51.864;5.646;2022-12-11T03:38:09;62.15;;;19.73;;
42140;SDS011;27809;51.864;5.646;2022-12-11T03:43:04;61.47;;;19.50;;
42140;SDS011;27809;51.864;5.646;2022-12-11T03:45:31;51.50;;;19.17;;
42140;SDS011;27809;51.864;5.646;2022-12-11T03:47:57;65.80;;;20.92;;
42140;SDS011;27809;51.864;5.646;2022-12-11T03:50:24;62.25;;;21.27;;
42140;SDS011;27809;51.864;5.646;2022-12-11T03:52:54;64.00;;;17.75;;
42140;SDS011;27809;51.864;5.646;2022-12-11T03:55:20;66.85;;;22.17;;
42140;SDS011;27809;51.864;5.646;2022-12-11T03:57:47;52.50;;;17.77;;
42140;SDS011;27809;51.864;5.646;2022-12-11T04:00:14;58.85;;;18.08;;
42140;SDS011;27809;51.864;5.646;2022-12-11T04:02:42;57.83;;;21.20;;
42140;SDS011;27809;51.864;5.646;2022-12-11T04:05:08;55.42;;;19.42;;
42140;SDS011;27809;51.864;5.646;2022-12-11T04:07:35;63.75;;;17.70;;
42140;SDS011;27809;51.864;5.646;2022-12-11T04:10:01;53.35;;;16.88;;
42140;SDS011;27809;51.864;5.646;2022-12-11T04:12:27;58.75;;;17.95;;
42140;SDS011;27809;51.864;5.646;2022-12-11T04:14:53;52.95;;;18.92;;
42140;SDS011;27809;51.864;5.646;2022-12-11T04:17:29;43.40;;;16.80;;
42140;SDS011;27809;51.864;5.646;2022-12-11T04:20:14;48.33;;;18.33;;
42140;SDS011;27809;51.864;5.646;2022-12-11T04:23:14;52.00;;;17.80;;
42140;SDS011;27809;51.864;5.646;2022-12-11T04:26:04;52.30;;;17.73;;
42140;SDS011;27809;51.864;5.646;2022-12-11T04:28:34;58.55;;;18.13;;
42140;SDS011;27809;51.864;5.646;2022-12-11T04:31:00;51.88;;;18.23;;
42140;SDS011;27809;51.864;5.646;2022-12-11T04:33:26;46.50;;;16.02;;
42140;SDS011;27809;51.864;5.646;2022-12-11T04:35:52;57.00;;;18.95;;
42140;SDS011;27809;51.864;5.646;2022-12-11T04:38:18;45.60;;;16.88;;
42140;SDS011;27809;51.864;5.646;2022-12-11T04:40:43;52.97;;;18.08;;
42140;SDS011;27809;51.864;5.646;2022-12-11T04:43:09;40.60;;;16.02;;
42140;SDS011;27809;51.864;5.646;2022-12-11T04:45:34;51.95;;;15.65;;
42140;SDS011;27809;51.864;5.646;2022-12-11T04:48:00;49.40;;;16.95;;
42140;SDS011;27809;51.864;5.646;2022-12-11T04:50:25;50.30;;;16.55;;
42140;SDS011;27809;51.864;5.646;2022-12-11T04:52:54;44.25;;;19.15;;
42140;SDS011;27809;51.864;5.646;2022-12-11T04:55:20;49.17;;;16.15;;
42140;SDS011;27809;51.864;5.646;2022-12-11T04:57:46;43.17;;;14.55;;
42140;SDS011;27809;51.864;5.646;2022-12-11T05:00:12;50.78;;;18.05;;
42140;SDS011;27809;51.864;5.646;2022-12-11T05:02:39;42.35;;;15.20;;
42140;SDS011;27809;51.864;5.646;2022-12-11T05:05:06;49.15;;;16.88;;
42140;SDS011;27809;51.864;5.646;2022-12-11T05:07:36;49.53;;;16.92;;
42140;SDS011;27809;51.864;5.646;2022-12-11T05:10:03;38.40;;;17.00;;
42140;SDS011;27809;51.864;5.646;2022-12-11T05:12:30;36.25;;;15.57;;
42140;SDS011;27809;51.864;5.646;2022-12-11T05:14:56;31.50;;;13.90;;
42140;SDS011;27809;51.864;5.646;2022-12-11T05:17:21;36.63;;;14.85;;
42140;SDS011;27809;51.864;5.646;2022-12-11T05:19:48;30.63;;;14.20;;
42140;SDS011;27809;51.864;5.646;2022-12-11T05:22:14;34.45;;;14.27;;
42140;SDS011;27809;51.864;5.646;2022-12-11T05:24:40;30.58;;;13.02;;
42140;SDS011;27809;51.864;5.646;2022-12-11T05:27:06;23.42;;;12.60;;
42140;SDS011;27809;51.864;5.646;2022-12-11T05:29:31;35.88;;;15.25;;
42140;SDS011;27809;51.864;5.646;2022-12-11T05:31:57;34.63;;;14.80;;
42140;SDS011;27809;51.864;5.646;2022-12-11T05:34:23;26.45;;;12.05;;
42140;SDS011;27809;51.864;5.646;2022-12-11T05:36:48;32.47;;;11.77;;
42140;SDS011;27809;51.864;5.646;2022-12-11T05:39:14;25.95;;;12.43;;
42140;SDS011;27809;51.864;5.646;2022-12-11T05:41:40;29.10;;;13.10;;
42140;SDS011;27809;51.864;5.646;2022-12-11T05:44:05;29.40;;;11.68;;
42140;SDS011;27809;51.864;5.646;2022-12-11T05:46:31;27.13;;;12.05;;
42140;SDS011;27809;51.864;5.646;2022-12-11T05:48:57;25.70;;;12.73;;
42140;SDS011;27809;51.864;5.646;2022-12-11T05:51:25;23.48;;;11.57;;
42140;SDS011;27809;51.864;5.646;2022-12-11T05:53:51;27.17;;;11.23;;
42140;SDS011;27809;51.864;5.646;2022-12-11T05:56:19;22.15;;;10.13;;
42140;SDS011;27809;51.864;5.646;2022-12-11T05:58:47;24.83;;;9.50;;
42140;SDS011;27809;51.864;5.646;2022-12-11T06:01:14;28.23;;;11.43;;
42140;SDS011;27809;51.864;5.646;2022-12-11T06:03:44;28.00;;;12.00;;
42140;SDS011;27809;51.864;5.646;2022-12-11T06:06:10;25.75;;;11.18;;
42140;SDS011;27809;51.864;5.646;2022-12-11T06:08:36;26.50;;;11.55;;
42140;SDS011;27809;51.864;5.646;2022-12-11T06:11:02;22.48;;;9.98;;
42140;SDS011;27809;51.864;5.646;2022-12-11T06:13:28;27.92;;;11.68;;
42140;SDS011;27809;51.864;5.646;2022-12-11T06:15:54;32.30;;;10.93;;
42140;SDS011;27809;51.864;5.646;2022-12-11T06:18:23;22.52;;;10.13;;
42140;SDS011;27809;51.864;5.646;2022-12-11T06:20:49;28.13;;;10.55;;
42140;SDS011;27809;51.864;5.646;2022-12-11T06:23:14;24.95;;;10.80;;
42140;SDS011;27809;51.864;5.646;2022-12-11T06:25:40;19.20;;;8.43;;
42140;SDS011;27809;51.864;5.646;2022-12-11T06:28:05;24.70;;;9.13;;
42140;SDS011;27809;51.864;5.646;2022-12-11T06:30:31;18.42;;;9.50;;
42140;SDS011;27809;51.864;5.646;2022-12-11T06:32:57;19.50;;;8.27;;
42140;SDS011;27809;51.864;5.646;2022-12-11T06:35:23;25.25;;;10.48;;
42140;SDS011;27809;51.864;5.646;2022-12-11T06:37:49;23.27;;;9.52;;
42140;SDS011;27809;51.864;5.646;2022-12-11T06:40:14;20.52;;;10.45;;
42140;SDS011;27809;51.864;5.646;2022-12-11T06:42:40;24.63;;;8.05;;
42140;SDS011;27809;51.864;5.646;2022-12-11T06:45:06;19.38;;;8.32;;
42140;SDS011;27809;51.864;5.646;2022-12-11T06:47:32;19.15;;;8.57;;
42140;SDS011;27809;51.864;5.646;2022-12-11T06:49:57;22.90;;;9.43;;
42140;SDS011;27809;51.864;5.646;2022-12-11T06:52:23;27.38;;;10.18;;
42140;SDS011;27809;51.864;5.646;2022-12-11T06:54:51;19.67;;;9.10;;
42140;SDS011;27809;51.864;5.646;2022-12-11T06:57:16;25.77;;;9.68;;
42140;SDS011;27809;51.864;5.646;2022-12-11T06:59:43;19.30;;;9.32;;
42140;SDS011;27809;51.864;5.646;2022-12-11T07:02:12;21.70;;;10.52;;
42140;SDS011;27809;51.864;5.646;2022-12-11T07:04:39;24.98;;;9.55;;
42140;SDS011;27809;51.864;5.646;2022-12-11T07:07:05;18.33;;;7.93;;
42140;SDS011;27809;51.864;5.646;2022-12-11T07:09:31;20.70;;;10.60;;
42140;SDS011;27809;51.864;5.646;2022-12-11T07:11:57;23.02;;;10.32;;
42140;SDS011;27809;51.864;5.646;2022-12-11T07:14:22;17.00;;;8.15;;
42140;SDS011;27809;51.864;5.646;2022-12-11T07:16:48;24.02;;;8.98;;
42140;SDS011;27809;51.864;5.646;2022-12-11T07:19:14;24.90;;;10.43;;
42140;SDS011;27809;51.864;5.646;2022-12-11T07:21:39;21.60;;;7.45;;
42140;SDS011;27809;51.864;5.646;2022-12-11T07:24:05;28.70;;;10.32;;
42140;SDS011;27809;51.864;5.646;2022-12-11T07:26:31;21.17;;;9.88;;
42140;SDS011;27809;51.864;5.646;2022-12-11T07:28:57;25.00;;;9.27;;
42140;SDS011;27809;51.864;5.646;2022-12-11T07:31:23;20.67;;;8.38;;
42140;SDS011;27809;51.864;5.646;2022-12-11T07:33:53;17.08;;;7.50;;
42140;SDS011;27809;51.864;5.646;2022-12-11T07:36:20;16.10;;;7.63;;
42140;SDS011;27809;51.864;5.646;2022-12-11T07:38:46;19.30;;;8.73;;
42140;SDS011;27809;51.864;5.646;2022-12-11T07:41:12;17.55;;;8.10;;
42140;SDS011;27809;51.864;5.646;2022-12-11T07:43:39;19.67;;;9.05;;
42140;SDS011;27809;51.864;5.646;2022-12-11T07:46:06;16.92;;;6.65;;
42140;SDS011;27809;51.864;5.646;2022-12-11T07:48:37;17.88;;;8.48;;
42140;SDS011;27809;51.864;5.646;2022-12-11T07:51:16;15.30;;;7.40;;
42140;SDS011;27809;51.864;5.646;2022-12-11T07:53:43;21.63;;;7.07;;
42140;SDS011;27809;51.864;5.646;2022-12-11T07:56:09;22.88;;;7.47;;
42140;SDS011;27809;51.864;5.646;2022-12-11T07:58:35;23.17;;;7.03;;
42140;SDS011;27809;51.864;5.646;2022-12-11T08:01:02;20.15;;;7.35;;
42140;SDS011;27809;51.864;5.646;2022-12-11T08:03:36;14.63;;;7.38;;
42140;SDS011;27809;51.864;5.646;2022-12-11T08:06:01;17.88;;;7.63;;
42140;SDS011;27809;51.864;5.646;2022-12-11T08:08:27;17.67;;;8.20;;
42140;SDS011;27809;51.864;5.646;2022-12-11T08:10:52;15.20;;;7.43;;
42140;SDS011;27809;51.864;5.646;2022-12-11T08:13:18;19.08;;;6.85;;
42140;SDS011;27809;51.864;5.646;2022-12-11T08:15:43;15.77;;;7.97;;
42140;SDS011;27809;51.864;5.646;2022-12-11T08:18:09;17.77;;;7.78;;
42140;SDS011;27809;51.864;5.646;2022-12-11T08:20:36;18.65;;;8.20;;
42140;SDS011;27809;51.864;5.646;2022-12-11T08:23:02;16.17;;;6.57;;
42140;SDS011;27809;51.864;5.646;2022-12-11T08:25:28;17.20;;;7.43;;
42140;SDS011;27809;51.864;5.646;2022-12-11T08:27:54;22.70;;;9.00;;
42140;SDS011;27809;51.864;5.646;2022-12-11T08:30:20;15.95;;;7.97;;
42140;SDS011;27809;51.864;5.646;2022-12-11T08:32:45;15.80;;;7.32;;
42140;SDS011;27809;51.864;5.646;2022-12-11T08:35:11;15.30;;;7.32;;
42140;SDS011;27809;51.864;5.646;2022-12-11T08:37:36;21.50;;;10.27;;
42140;SDS011;27809;51.864;5.646;2022-12-11T08:40:02;19.98;;;7.78;;
42140;SDS011;27809;51.864;5.646;2022-12-11T08:42:28;17.55;;;6.07;;
42140;SDS011;27809;51.864;5.646;2022-12-11T08:44:53;16.45;;;6.75;;
42140;SDS011;27809;51.864;5.646;2022-12-11T08:47:19;17.17;;;7.15;;
42140;SDS011;27809;51.864;5.646;2022-12-11T08:49:44;19.92;;;9.27;;
42140;SDS011;27809;51.864;5.646;2022-12-11T08:52:10;15.27;;;6.72;;
42140;SDS011;27809;51.864;5.646;2022-12-11T08:54:36;16.65;;;7.30;;
42140;SDS011;27809;51.864;5.646;2022-12-11T08:57:02;17.13;;;7.40;;
42140;SDS011;27809;51.864;5.646;2022-12-11T08:59:28;18.83;;;5.78;;
42140;SDS011;27809;51.864;5.646;2022-12-11T09:01:54;18.65;;;6.35;;
42140;SDS011;27809;51.864;5.646;2022-12-11T09:04:20;19.05;;;7.53;;
42140;SDS011;27809;51.864;5.646;2022-12-11T09:06:45;19.98;;;6.65;;
42140;SDS011;27809;51.864;5.646;2022-12-11T09:09:11;15.20;;;7.82;;
42140;SDS011;27809;51.864;5.646;2022-12-11T09:11:37;13.38;;;6.97;;
42140;SDS011;27809;51.864;5.646;2022-12-11T09:14:03;17.05;;;8.73;;
42140;SDS011;27809;51.864;5.646;2022-12-11T09:16:29;17.30;;;7.32;;
42140;SDS011;27809;51.864;5.646;2022-12-11T09:18:56;16.30;;;7.20;;
42140;SDS011;27809;51.864;5.646;2022-12-11T09:21:26;16.05;;;7.18;;
42140;SDS011;27809;51.864;5.646;2022-12-11T09:23:54;15.32;;;6.63;;
42140;SDS011;27809;51.864;5.646;2022-12-11T09:26:21;22.55;;;8.55;;
42140;SDS011;27809;51.864;5.646;2022-12-11T09:28:47;14.85;;;6.07;;
42140;SDS011;27809;51.864;5.646;2022-12-11T09:31:18;21.33;;;8.63;;
42140;SDS011;27809;51.864;5.646;2022-12-11T09:33:47;19.38;;;8.45;;
42140;SDS011;27809;51.864;5.646;2022-12-11T09:36:13;17.83;;;6.72;;
42140;SDS011;27809;51.864;5.646;2022-12-11T09:38:39;18.23;;;8.30;;
42140;SDS011;27809;51.864;5.646;2022-12-11T09:46:35;21.80;;;8.90;;
42140;SDS011;27809;51.864;5.646;2022-12-11T09:49:02;17.25;;;8.48;;
42140;SDS011;27809;51.864;5.646;2022-12-11T09:51:38;26.75;;;9.10;;
42140;SDS011;27809;51.864;5.646;2022-12-11T09:54:08;18.90;;;9.15;;
42140;SDS011;27809;51.864;5.646;2022-12-11T09:56:41;18.98;;;8.27;;
42140;SDS011;27809;51.864;5.646;2022-12-11T09:59:19;16.10;;;7.30;;
42140;SDS011;27809;51.864;5.646;2022-12-11T10:04:35;21.95;;;9.57;;
42140;SDS011;27809;51.864;5.646;2022-12-11T10:07:18;24.50;;;8.75;;
42140;SDS011;27809;51.864;5.646;2022-12-11T10:10:07;14.02;;;7.38;;
42140;SDS011;27809;51.864;5.646;2022-12-11T10:12:39;21.67;;;8.30;;
42140;SDS011;27809;51.864;5.646;2022-12-11T10:15:28;23.55;;;9.52;;
42140;SDS011;27809;51.864;5.646;2022-12-11T10:17:56;22.10;;;9.55;;
42140;SDS011;27809;51.864;5.646;2022-12-11T10:20:24;19.17;;;7.78;;
42140;SDS011;27809;51.864;5.646;2022-12-11T10:23:00;19.45;;;8.23;;
42140;SDS011;27809;51.864;5.646;2022-12-11T10:25:28;17.83;;;8.50;;
42140;SDS011;27809;51.864;5.646;2022-12-11T10:27:56;18.67;;;7.15;;
42140;SDS011;27809;51.864;5.646;2022-12-11T10:30:24;16.40;;;7.47;;
42140;SDS011;27809;51.864;5.646;2022-12-11T10:33:02;15.32;;;8.38;;
42140;SDS011;27809;51.864;5.646;2022-12-11T10:35:39;13.45;;;8.18;;
42140;SDS011;27809;51.864;5.646;2022-12-11T10:38:42;18.90;;;8.55;;
42140;SDS011;27809;51.864;5.646;2022-12-11T10:41:09;18.55;;;8.88;;
42140;SDS011;27809;51.864;5.646;2022-12-11T10:43:38;20.25;;;8.82;;
42140;SDS011;27809;51.864;5.646;2022-12-11T10:46:13;23.65;;;9.85;;
42140;SDS011;27809;51.864;5.646;2022-12-11T10:48:46;20.30;;;9.20;;
42140;SDS011;27809;51.864;5.646;2022-12-11T10:51:14;24.08;;;10.40;;
42140;SDS011;27809;51.864;5.646;2022-12-11T10:53:40;17.75;;;8.05;;
42140;SDS011;27809;51.864;5.646;2022-12-11T10:56:07;22.13;;;10.05;;
42140;SDS011;27809;51.864;5.646;2022-12-11T10:58:33;22.67;;;10.07;;
42140;SDS011;27809;51.864;5.646;2022-12-11T11:01:09;31.40;;;10.48;;
42140;SDS011;27809;51.864;5.646;2022-12-11T11:03:42;20.02;;;9.27;;
42140;SDS011;27809;51.864;5.646;2022-12-11T11:06:21;22.95;;;10.93;;
42140;SDS011;27809;51.864;5.646;2022-12-11T11:08:49;17.83;;;8.45;;
42140;SDS011;27809;51.864;5.646;2022-12-11T11:11:29;20.50;;;9.90;;
42140;SDS011;27809;51.864;5.646;2022-12-11T11:16:34;22.27;;;9.88;;
42140;SDS011;27809;51.864;5.646;2022-12-11T11:19:02;17.63;;;7.85;;
42140;SDS011;27809;51.864;5.646;2022-12-11T11:21:27;26.90;;;9.80;;
42140;SDS011;27809;51.864;5.646;2022-12-11T11:23:54;26.98;;;11.63;;
42140;SDS011;27809;51.864;5.646;2022-12-11T11:26:20;23.92;;;7.32;;
42140;SDS011;27809;51.864;5.646;2022-12-11T11:28:48;17.17;;;8.40;;
42140;SDS011;27809;51.864;5.646;2022-12-11T11:31:16;21.20;;;8.18;;
42140;SDS011;27809;51.864;5.646;2022-12-11T11:33:44;24.10;;;8.60;;
42140;SDS011;27809;51.864;5.646;2022-12-11T11:36:19;14.00;;;7.78;;
42140;SDS011;27809;51.864;5.646;2022-12-11T11:38:57;16.92;;;7.18;;
42140;SDS011;27809;51.864;5.646;2022-12-11T11:44:23;20.88;;;8.77;;
42140;SDS011;27809;51.864;5.646;2022-12-11T11:49:49;23.73;;;8.45;;
42140;SDS011;27809;51.864;5.646;2022-12-11T11:52:26;14.98;;;7.28;;
42140;SDS011;27809;51.864;5.646;2022-12-11T11:57:45;25.17;;;9.82;;
42140;SDS011;27809;51.864;5.646;2022-12-11T12:00:22;28.08;;;11.38;;
42140;SDS011;27809;51.864;5.646;2022-12-11T12:02:50;22.13;;;8.30;;
42140;SDS011;27809;51.864;5.646;2022-12-11T12:08:41;21.85;;;8.07;;
42140;SDS011;27809;51.864;5.646;2022-12-11T12:17:36;20.48;;;8.25;;
42140;SDS011;27809;51.864;5.646;2022-12-11T12:19:56;20.55;;;8.23;;
42140;SDS011;27809;51.864;5.646;2022-12-11T12:25:32;19.50;;;8.60;;
42140;SDS011;27809;51.864;5.646;2022-12-11T12:31:12;19.60;;;6.95;;
42140;SDS011;27809;51.864;5.646;2022-12-11T12:34:27;20.02;;;8.07;;
42140;SDS011;27809;51.864;5.646;2022-12-11T12:36:59;26.20;;;9.40;;
42140;SDS011;27809;51.864;5.646;2022-12-11T12:47:31;17.67;;;8.45;;
42140;SDS011;27809;51.864;5.646;2022-12-11T12:49:58;22.55;;;9.00;;
42140;SDS011;27809;51.864;5.646;2022-12-11T12:52:44;19.00;;;8.68;;
42140;SDS011;27809;51.864;5.646;2022-12-11T12:57:46;22.30;;;9.38;;
42140;SDS011;27809;51.864;5.646;2022-12-11T13:03:22;23.77;;;9.27;;
42140;SDS011;27809;51.864;5.646;2022-12-11T13:08:26;18.83;;;10.70;;
42140;SDS011;27809;51.864;5.646;2022-12-11T13:10:59;23.30;;;10.50;;
42140;SDS011;27809;51.864;5.646;2022-12-11T13:13:32;18.80;;;8.20;;
42140;SDS011;27809;51.864;5.646;2022-12-11T13:16:07;22.63;;;7.13;;
42140;SDS011;27809;51.864;5.646;2022-12-11T13:18:53;16.75;;;8.10;;
42140;SDS011;27809;51.864;5.646;2022-12-11T13:23:54;20.98;;;10.23;;
42140;SDS011;27809;51.864;5.646;2022-12-11T13:26:30;19.00;;;9.00;;
42140;SDS011;27809;51.864;5.646;2022-12-11T13:28:57;22.30;;;9.52;;
42140;SDS011;27809;51.864;5.646;2022-12-11T13:31:33;19.30;;;9.70;;
42140;SDS011;27809;51.864;5.646;2022-12-11T13:34:22;21.50;;;8.63;;
42140;SDS011;27809;51.864;5.646;2022-12-11T13:36:48;20.60;;;10.13;;
42140;SDS011;27809;51.864;5.646;2022-12-11T13:39:16;26.00;;;8.50;;
42140;SDS011;27809;51.864;5.646;2022-12-11T13:41:47;16.77;;;8.07;;
42140;SDS011;27809;51.864;5.646;2022-12-11T13:44:22;21.60;;;8.15;;
42140;SDS011;27809;51.864;5.646;2022-12-11T13:46:51;17.98;;;9.23;;
42140;SDS011;27809;51.864;5.646;2022-12-11T13:49:20;22.38;;;8.38;;
42140;SDS011;27809;51.864;5.646;2022-12-11T13:51:52;19.10;;;9.60;;
42140;SDS011;27809;51.864;5.646;2022-12-11T13:54:20;17.58;;;8.00;;
42140;SDS011;27809;51.864;5.646;2022-12-11T13:56:59;16.10;;;7.85;;
42140;SDS011;27809;51.864;5.646;2022-12-11T13:59:28;18.50;;;9.07;;
42140;SDS011;27809;51.864;5.646;2022-12-11T14:01:59;17.42;;;7.75;;
42140;SDS011;27809;51.864;5.646;2022-12-11T14:04:30;19.58;;;7.78;;
42140;SDS011;27809;51.864;5.646;2022-12-11T14:06:57;19.38;;;8.27;;
42140;SDS011;27809;51.864;5.646;2022-12-11T14:09:23;19.63;;;10.27;;
42140;SDS011;27809;51.864;5.646;2022-12-11T14:11:50;19.00;;;7.57;;
42140;SDS011;27809;51.864;5.646;2022-12-11T14:14:21;18.52;;;8.70;;
42140;SDS011;27809;51.864;5.646;2022-12-11T14:16:51;16.05;;;8.50;;
42140;SDS011;27809;51.864;5.646;2022-12-11T14:19:17;17.00;;;6.65;;
42140;SDS011;27809;51.864;5.646;2022-12-11T14:21:54;23.75;;;10.70;;
42140;SDS011;27809;51.864;5.646;2022-12-11T14:24:20;25.88;;;9.15;;
42140;SDS011;27809;51.864;5.646;2022-12-11T14:26:49;21.27;;;7.70;;
42140;SDS011;27809;51.864;5.646;2022-12-11T14:29:26;18.23;;;6.57;;
42140;SDS011;27809;51.864;5.646;2022-12-11T14:31:54;21.88;;;7.00;;
42140;SDS011;27809;51.864;5.646;2022-12-11T14:34:23;21.35;;;9.32;;
42140;SDS011;27809;51.864;5.646;2022-12-11T14:37:09;20.45;;;7.05;;
42140;SDS011;27809;51.864;5.646;2022-12-11T14:39:39;21.15;;;7.78;;
42140;SDS011;27809;51.864;5.646;2022-12-11T14:42:11;16.95;;;7.85;;
42140;SDS011;27809;51.864;5.646;2022-12-11T14:44:53;18.70;;;7.65;;
42140;SDS011;27809;51.864;5.646;2022-12-11T14:47:31;20.08;;;6.70;;
42140;SDS011;27809;51.864;5.646;2022-12-11T14:50:04;21.98;;;9.05;;
42140;SDS011;27809;51.864;5.646;2022-12-11T14:52:38;19.95;;;8.07;;
42140;SDS011;27809;51.864;5.646;2022-12-11T14:55:19;23.13;;;8.80;;
42140;SDS011;27809;51.864;5.646;2022-12-11T14:57:49;22.55;;;8.32;;
42140;SDS011;27809;51.864;5.646;2022-12-11T15:00:21;20.98;;;8.63;;
42140;SDS011;27809;51.864;5.646;2022-12-11T15:02:56;19.80;;;9.27;;
42140;SDS011;27809;51.864;5.646;2022-12-11T15:05:23;20.85;;;8.77;;
42140;SDS011;27809;51.864;5.646;2022-12-11T15:07:56;19.55;;;8.10;;
42140;SDS011;27809;51.864;5.646;2022-12-11T15:10:27;21.33;;;9.45;;
42140;SDS011;27809;51.864;5.646;2022-12-11T15:12:59;22.77;;;10.07;;
42140;SDS011;27809;51.864;5.646;2022-12-11T15:15:26;23.73;;;8.88;;
42140;SDS011;27809;51.864;5.646;2022-12-11T15:17:53;23.73;;;7.72;;
42140;SDS011;27809;51.864;5.646;2022-12-11T15:20:23;14.57;;;7.53;;
42140;SDS011;27809;51.864;5.646;2022-12-11T15:22:51;20.90;;;8.77;;
42140;SDS011;27809;51.864;5.646;2022-12-11T15:25:22;18.80;;;10.35;;
42140;SDS011;27809;51.864;5.646;2022-12-11T15:27:50;27.80;;;10.90;;
42140;SDS011;27809;51.864;5.646;2022-12-11T15:35:33;20.70;;;9.60;;
42140;SDS011;27809;51.864;5.646;2022-12-11T15:37:59;16.40;;;8.25;;
42140;SDS011;27809;51.864;5.646;2022-12-11T15:40:24;24.27;;;9.73;;
42140;SDS011;27809;51.864;5.646;2022-12-11T15:42:51;22.10;;;9.02;;
42140;SDS011;27809;51.864;5.646;2022-12-11T15:45:22;20.85;;;7.40;;
42140;SDS011;27809;51.864;5.646;2022-12-11T15:47:52;19.52;;;7.07;;
42140;SDS011;27809;51.864;5.646;2022-12-11T15:50:23;18.50;;;8.45;;
42140;SDS011;27809;51.864;5.646;2022-12-11T15:52:50;18.60;;;7.43;;
42140;SDS011;27809;51.864;5.646;2022-12-11T15:55:17;19.80;;;6.88;;
42140;SDS011;27809;51.864;5.646;2022-12-11T15:57:48;16.77;;;7.85;;